sensor_id;sensor_type;location;lat;lon;timestamp;P1;durP1;ratioP1;P2;durP2;ratioP2
962;SDS011;469;48.770;9.176;2022-11-24T00:00:53;13.55;;;2.38;;
962;SDS011;469;48.770;9.176;2022-11-24T00:03:37;16.95;;;2.30;;
962;SDS011;469;48.770;9.176;2022-11-24T00:06:13;11.95;;;2.95;;
962;SDS011;469;48.770;9.176;2022-11-24T00:08:54;13.60;;;3.03;;
962;SDS011;469;48.770;9.176;2022-11-24T00:11:31;15.70;;;2.60;;
962;SDS011;469;48.770;9.176;2022-11-24T00:14:01;15.45;;;2.72;;
962;SDS011;469;48.770;9.176;2022-11-24T00:16:36;15.35;;;3.00;;
962;SDS011;469;48.770;9.176;2022-11-24T00:19:05;8.50;;;2.70;;
962;SDS011;469;48.770;9.176;2022-11-24T00:21:37;17.25;;;4.40;;
962;SDS011;469;48.770;9.176;2022-11-24T00:24:21;13.52;;;2.83;;
962;SDS011;469;48.770;9.176;2022-11-24T00:26:48;13.93;;;2.95;;
962;SDS011;469;48.770;9.176;2022-11-24T00:29:29;22.50;;;2.80;;
962;SDS011;469;48.770;9.176;2022-11-24T00:31:56;9.68;;;2.60;;
962;SDS011;469;48.770;9.176;2022-11-24T00:34:24;10.70;;;2.55;;
962;SDS011;469;48.770;9.176;2022-11-24T00:36:51;13.80;;;2.45;;
962;SDS011;469;48.770;9.176;2022-11-24T00:39:21;12.75;;;2.78;;
962;SDS011;469;48.770;9.176;2022-11-24T00:41:48;9.85;;;1.92;;
962;SDS011;469;48.770;9.176;2022-11-24T00:44:15;13.20;;;2.20;;
962;SDS011;469;48.770;9.176;2022-11-24T00:46:44;12.68;;;1.90;;
962;SDS011;469;48.770;9.176;2022-11-24T00:49:11;24.67;;;3.05;;
962;SDS011;469;48.770;9.176;2022-11-24T00:51:39;9.02;;;2.03;;
962;SDS011;469;48.770;9.176;2022-11-24T00:54:06;5.57;;;1.80;;
962;SDS011;469;48.770;9.176;2022-11-24T00:56:36;12.43;;;2.30;;
962;SDS011;469;48.770;9.176;2022-11-24T00:59:03;13.32;;;2.10;;
962;SDS011;469;48.770;9.176;2022-11-24T01:01:33;13.75;;;2.38;;
962;SDS011;469;48.770;9.176;2022-11-24T01:04:03;12.20;;;2.25;;
962;SDS011;469;48.770;9.176;2022-11-24T01:06:30;9.07;;;2.13;;
962;SDS011;469;48.770;9.176;2022-11-24T01:08:59;6.60;;;1.70;;
962;SDS011;469;48.770;9.176;2022-11-24T01:11:27;9.55;;;2.03;;
962;SDS011;469;48.770;9.176;2022-11-24T01:14:16;9.40;;;2.20;;
962;SDS011;469;48.770;9.176;2022-11-24T01:16:46;12.65;;;2.15;;
962;SDS011;469;48.770;9.176;2022-11-24T01:19:14;8.63;;;2.13;;
962;SDS011;469;48.770;9.176;2022-11-24T01:21:43;7.30;;;1.60;;
962;SDS011;469;48.770;9.176;2022-11-24T01:24:12;15.30;;;2.72;;
962;SDS011;469;48.770;9.176;2022-11-24T01:26:40;10.68;;;2.28;;
962;SDS011;469;48.770;9.176;2022-11-24T01:29:08;10.88;;;2.80;;
962;SDS011;469;48.770;9.176;2022-11-24T01:31:37;10.00;;;2.40;;
962;SDS011;469;48.770;9.176;2022-11-24T01:34:05;18.40;;;2.63;;
962;SDS011;469;48.770;9.176;2022-11-24T01:36:32;16.33;;;3.08;;
962;SDS011;469;48.770;9.176;2022-11-24T01:39:01;14.60;;;3.10;;
962;SDS011;469;48.770;9.176;2022-11-24T01:41:28;7.72;;;2.05;;
962;SDS011;469;48.770;9.176;2022-11-24T01:43:56;11.95;;;2.42;;
962;SDS011;469;48.770;9.176;2022-11-24T01:46:26;12.43;;;2.20;;
962;SDS011;469;48.770;9.176;2022-11-24T01:49:02;19.65;;;2.55;;
962;SDS011;469;48.770;9.176;2022-11-24T01:51:32;17.33;;;2.20;;
962;SDS011;469;48.770;9.176;2022-11-24T01:54:01;6.70;;;2.33;;
962;SDS011;469;48.770;9.176;2022-11-24T01:56:31;9.57;;;2.00;;
962;SDS011;469;48.770;9.176;2022-11-24T01:59:02;9.48;;;2.13;;
962;SDS011;469;48.770;9.176;2022-11-24T02:01:31;14.82;;;2.38;;
962;SDS011;469;48.770;9.176;2022-11-24T02:04:02;14.13;;;2.40;;
962;SDS011;469;48.770;9.176;2022-11-24T02:06:34;13.45;;;2.22;;
962;SDS011;469;48.770;9.176;2022-11-24T02:09:07;13.80;;;1.70;;
962;SDS011;469;48.770;9.176;2022-11-24T02:11:38;13.52;;;2.90;;
962;SDS011;469;48.770;9.176;2022-11-24T02:14:11;9.45;;;1.80;;
962;SDS011;469;48.770;9.176;2022-11-24T02:16:43;13.48;;;2.35;;
962;SDS011;469;48.770;9.176;2022-11-24T02:19:30;18.17;;;2.20;;
962;SDS011;469;48.770;9.176;2022-11-24T02:22:00;7.00;;;1.60;;
962;SDS011;469;48.770;9.176;2022-11-24T02:24:29;8.13;;;1.90;;
962;SDS011;469;48.770;9.176;2022-11-24T02:26:59;14.55;;;2.25;;
962;SDS011;469;48.770;9.176;2022-11-24T02:29:36;3.92;;;1.30;;
962;SDS011;469;48.770;9.176;2022-11-24T02:32:06;7.35;;;1.52;;
962;SDS011;469;48.770;9.176;2022-11-24T02:34:37;13.52;;;2.58;;
962;SDS011;469;48.770;9.176;2022-11-24T02:37:07;7.88;;;1.42;;
962;SDS011;469;48.770;9.176;2022-11-24T02:39:41;12.48;;;2.20;;
962;SDS011;469;48.770;9.176;2022-11-24T02:42:10;9.98;;;2.00;;
962;SDS011;469;48.770;9.176;2022-11-24T02:44:40;7.95;;;1.90;;
962;SDS011;469;48.770;9.176;2022-11-24T02:47:08;11.80;;;2.45;;
962;SDS011;469;48.770;9.176;2022-11-24T02:49:36;6.43;;;1.42;;
962;SDS011;469;48.770;9.176;2022-11-24T02:52:05;6.63;;;1.98;;
962;SDS011;469;48.770;9.176;2022-11-24T02:54:37;12.60;;;1.70;;
962;SDS011;469;48.770;9.176;2022-11-24T02:57:04;9.10;;;2.00;;
962;SDS011;469;48.770;9.176;2022-11-24T02:59:33;12.05;;;2.00;;
962;SDS011;469;48.770;9.176;2022-11-24T03:02:00;14.00;;;2.17;;
962;SDS011;469;48.770;9.176;2022-11-24T03:04:27;8.75;;;1.80;;
962;SDS011;469;48.770;9.176;2022-11-24T03:06:56;7.95;;;2.00;;
962;SDS011;469;48.770;9.176;2022-11-24T03:09:33;6.55;;;1.58;;
962;SDS011;469;48.770;9.176;2022-11-24T03:12:00;4.13;;;1.48;;
962;SDS011;469;48.770;9.176;2022-11-24T03:14:27;10.93;;;1.42;;
962;SDS011;469;48.770;9.176;2022-11-24T03:16:59;15.85;;;1.95;;
962;SDS011;469;48.770;9.176;2022-11-24T03:19:26;13.88;;;1.90;;
962;SDS011;469;48.770;9.176;2022-11-24T03:21:58;3.83;;;1.33;;
962;SDS011;469;48.770;9.176;2022-11-24T03:24:29;6.38;;;1.60;;
962;SDS011;469;48.770;9.176;2022-11-24T03:26:57;6.35;;;1.40;;
962;SDS011;469;48.770;9.176;2022-11-24T03:29:33;6.20;;;1.50;;
962;SDS011;469;48.770;9.176;2022-11-24T03:32:01;9.77;;;1.65;;
962;SDS011;469;48.770;9.176;2022-11-24T03:34:33;6.60;;;1.60;;
962;SDS011;469;48.770;9.176;2022-11-24T03:37:00;9.40;;;1.85;;
962;SDS011;469;48.770;9.176;2022-11-24T03:39:29;10.35;;;1.73;;
962;SDS011;469;48.770;9.176;2022-11-24T03:42:03;8.90;;;1.55;;
962;SDS011;469;48.770;9.176;2022-11-24T03:44:32;9.85;;;1.58;;
962;SDS011;469;48.770;9.176;2022-11-24T03:47:02;9.32;;;1.40;;
962;SDS011;469;48.770;9.176;2022-11-24T03:49:30;5.25;;;1.40;;
962;SDS011;469;48.770;9.176;2022-11-24T03:51:57;8.75;;;1.38;;
962;SDS011;469;48.770;9.176;2022-11-24T03:54:43;8.73;;;1.30;;
962;SDS011;469;48.770;9.176;2022-11-24T03:57:11;8.60;;;1.73;;
962;SDS011;469;48.770;9.176;2022-11-24T03:59:42;6.63;;;1.50;;
962;SDS011;469;48.770;9.176;2022-11-24T04:02:09;8.38;;;1.42;;
962;SDS011;469;48.770;9.176;2022-11-24T04:04:46;8.50;;;1.58;;
962;SDS011;469;48.770;9.176;2022-11-24T04:07:18;10.65;;;1.80;;
962;SDS011;469;48.770;9.176;2022-11-24T04:09:45;9.45;;;1.40;;
962;SDS011;469;48.770;9.176;2022-11-24T04:12:15;12.32;;;1.85;;
962;SDS011;469;48.770;9.176;2022-11-24T04:15:02;11.10;;;1.70;;
962;SDS011;469;48.770;9.176;2022-11-24T04:17:31;6.53;;;1.45;;
962;SDS011;469;48.770;9.176;2022-11-24T04:20:01;8.73;;;1.65;;
962;SDS011;469;48.770;9.176;2022-11-24T04:22:29;5.50;;;1.90;;
962;SDS011;469;48.770;9.176;2022-11-24T04:24:58;10.90;;;1.40;;
962;SDS011;469;48.770;9.176;2022-11-24T04:27:28;9.35;;;1.98;;
962;SDS011;469;48.770;9.176;2022-11-24T04:29:57;10.18;;;1.70;;
962;SDS011;469;48.770;9.176;2022-11-24T04:32:27;10.88;;;1.73;;
962;SDS011;469;48.770;9.176;2022-11-24T04:34:54;8.07;;;2.17;;
962;SDS011;469;48.770;9.176;2022-11-24T04:37:30;11.10;;;1.92;;
962;SDS011;469;48.770;9.176;2022-11-24T04:40:01;6.78;;;1.80;;
962;SDS011;469;48.770;9.176;2022-11-24T04:42:29;9.40;;;2.30;;
962;SDS011;469;48.770;9.176;2022-11-24T04:44:56;7.70;;;1.77;;
962;SDS011;469;48.770;9.176;2022-11-24T04:47:26;8.23;;;1.80;;
962;SDS011;469;48.770;9.176;2022-11-24T04:50:00;8.75;;;1.80;;
962;SDS011;469;48.770;9.176;2022-11-24T04:52:31;16.23;;;1.45;;
962;SDS011;469;48.770;9.176;2022-11-24T04:55:08;9.77;;;2.10;;
962;SDS011;469;48.770;9.176;2022-11-24T04:57:35;10.13;;;1.90;;
962;SDS011;469;48.770;9.176;2022-11-24T05:00:03;15.98;;;2.03;;
962;SDS011;469;48.770;9.176;2022-11-24T05:02:35;10.18;;;2.20;;
962;SDS011;469;48.770;9.176;2022-11-24T05:05:05;12.02;;;1.73;;
962;SDS011;469;48.770;9.176;2022-11-24T05:07:34;14.77;;;2.47;;
962;SDS011;469;48.770;9.176;2022-11-24T05:10:05;12.88;;;1.60;;
962;SDS011;469;48.770;9.176;2022-11-24T05:12:53;21.15;;;2.38;;
962;SDS011;469;48.770;9.176;2022-11-24T05:15:23;7.72;;;1.50;;
962;SDS011;469;48.770;9.176;2022-11-24T05:18:00;13.57;;;1.80;;
962;SDS011;469;48.770;9.176;2022-11-24T05:20:29;18.17;;;4.03;;
962;SDS011;469;48.770;9.176;2022-11-24T05:23:05;10.38;;;2.33;;
962;SDS011;469;48.770;9.176;2022-11-24T05:25:32;11.82;;;1.60;;
962;SDS011;469;48.770;9.176;2022-11-24T05:27:59;9.60;;;2.17;;
962;SDS011;469;48.770;9.176;2022-11-24T05:30:37;7.28;;;1.73;;
962;SDS011;469;48.770;9.176;2022-11-24T05:33:04;14.77;;;2.20;;
962;SDS011;469;48.770;9.176;2022-11-24T05:35:32;9.00;;;2.03;;
962;SDS011;469;48.770;9.176;2022-11-24T05:38:05;12.38;;;2.33;;
962;SDS011;469;48.770;9.176;2022-11-24T05:40:33;7.78;;;1.98;;
962;SDS011;469;48.770;9.176;2022-11-24T05:43:02;15.00;;;2.15;;
962;SDS011;469;48.770;9.176;2022-11-24T05:45:32;7.40;;;1.80;;
962;SDS011;469;48.770;9.176;2022-11-24T05:48:03;7.13;;;1.70;;
962;SDS011;469;48.770;9.176;2022-11-24T05:50:33;8.32;;;1.80;;
962;SDS011;469;48.770;9.176;2022-11-24T05:53:03;6.85;;;1.98;;
962;SDS011;469;48.770;9.176;2022-11-24T05:55:32;18.70;;;2.03;;
962;SDS011;469;48.770;9.176;2022-11-24T05:58:01;14.60;;;2.33;;
962;SDS011;469;48.770;9.176;2022-11-24T06:00:29;8.68;;;1.85;;
962;SDS011;469;48.770;9.176;2022-11-24T06:03:07;11.25;;;1.77;;
962;SDS011;469;48.770;9.176;2022-11-24T06:05:46;13.27;;;2.53;;
962;SDS011;469;48.770;9.176;2022-11-24T06:08:14;11.50;;;1.98;;
962;SDS011;469;48.770;9.176;2022-11-24T06:10:51;11.93;;;2.13;;
962;SDS011;469;48.770;9.176;2022-11-24T06:13:18;14.02;;;2.30;;
962;SDS011;469;48.770;9.176;2022-11-24T06:15:49;8.70;;;2.10;;
962;SDS011;469;48.770;9.176;2022-11-24T06:18:27;14.13;;;2.42;;
962;SDS011;469;48.770;9.176;2022-11-24T06:21:08;10.02;;;3.15;;
962;SDS011;469;48.770;9.176;2022-11-24T06:23:56;14.05;;;2.53;;
962;SDS011;469;48.770;9.176;2022-11-24T06:26:52;17.85;;;2.47;;
962;SDS011;469;48.770;9.176;2022-11-24T06:29:34;6.07;;;2.15;;
962;SDS011;469;48.770;9.176;2022-11-24T06:32:19;12.98;;;2.90;;
962;SDS011;469;48.770;9.176;2022-11-24T06:35:02;10.95;;;2.55;;
962;SDS011;469;48.770;9.176;2022-11-24T06:37:43;15.45;;;2.28;;
962;SDS011;469;48.770;9.176;2022-11-24T06:40:13;16.80;;;2.03;;
962;SDS011;469;48.770;9.176;2022-11-24T06:42:44;25.08;;;3.00;;
962;SDS011;469;48.770;9.176;2022-11-24T06:45:18;12.30;;;2.42;;
962;SDS011;469;48.770;9.176;2022-11-24T06:47:47;12.25;;;2.63;;
962;SDS011;469;48.770;9.176;2022-11-24T06:50:22;11.38;;;2.28;;
962;SDS011;469;48.770;9.176;2022-11-24T06:52:50;13.20;;;2.33;;
962;SDS011;469;48.770;9.176;2022-11-24T06:55:18;9.68;;;2.10;;
962;SDS011;469;48.770;9.176;2022-11-24T06:57:54;12.18;;;2.42;;
962;SDS011;469;48.770;9.176;2022-11-24T07:00:24;24.27;;;3.35;;
962;SDS011;469;48.770;9.176;2022-11-24T07:03:05;10.15;;;1.90;;
962;SDS011;469;48.770;9.176;2022-11-24T07:05:35;23.77;;;5.93;;
962;SDS011;469;48.770;9.176;2022-11-24T07:08:03;12.32;;;2.75;;
962;SDS011;469;48.770;9.176;2022-11-24T07:10:33;9.73;;;2.42;;
962;SDS011;469;48.770;9.176;2022-11-24T07:13:06;15.00;;;2.90;;
962;SDS011;469;48.770;9.176;2022-11-24T07:15:36;9.45;;;2.00;;
962;SDS011;469;48.770;9.176;2022-11-24T07:18:04;14.45;;;2.38;;
962;SDS011;469;48.770;9.176;2022-11-24T07:20:45;14.45;;;2.30;;
962;SDS011;469;48.770;9.176;2022-11-24T07:23:18;13.15;;;2.08;;
962;SDS011;469;48.770;9.176;2022-11-24T07:25:48;13.82;;;2.85;;
962;SDS011;469;48.770;9.176;2022-11-24T07:28:16;16.67;;;2.95;;
962;SDS011;469;48.770;9.176;2022-11-24T07:30:43;13.85;;;2.72;;
962;SDS011;469;48.770;9.176;2022-11-24T07:33:10;16.38;;;3.10;;
962;SDS011;469;48.770;9.176;2022-11-24T07:35:37;15.75;;;2.60;;
962;SDS011;469;48.770;9.176;2022-11-24T07:38:04;9.63;;;3.08;;
962;SDS011;469;48.770;9.176;2022-11-24T07:40:32;19.35;;;2.92;;
962;SDS011;469;48.770;9.176;2022-11-24T07:42:59;16.90;;;3.00;;
962;SDS011;469;48.770;9.176;2022-11-24T07:45:27;15.48;;;3.70;;
962;SDS011;469;48.770;9.176;2022-11-24T07:47:54;15.05;;;3.22;;
962;SDS011;469;48.770;9.176;2022-11-24T07:50:21;13.38;;;3.40;;
962;SDS011;469;48.770;9.176;2022-11-24T07:52:48;14.85;;;2.80;;
962;SDS011;469;48.770;9.176;2022-11-24T07:55:16;16.38;;;2.40;;
962;SDS011;469;48.770;9.176;2022-11-24T07:57:43;13.18;;;2.60;;
962;SDS011;469;48.770;9.176;2022-11-24T08:00:10;11.85;;;2.55;;
962;SDS011;469;48.770;9.176;2022-11-24T08:02:39;11.55;;;2.97;;
962;SDS011;469;48.770;9.176;2022-11-24T08:05:06;16.35;;;3.30;;
962;SDS011;469;48.770;9.176;2022-11-24T08:07:34;19.27;;;2.88;;
962;SDS011;469;48.770;9.176;2022-11-24T08:10:01;14.13;;;3.10;;
962;SDS011;469;48.770;9.176;2022-11-24T08:12:28;21.85;;;3.03;;
962;SDS011;469;48.770;9.176;2022-11-24T08:14:55;12.85;;;3.20;;
962;SDS011;469;48.770;9.176;2022-11-24T08:17:22;21.25;;;3.58;;
962;SDS011;469;48.770;9.176;2022-11-24T08:19:51;14.13;;;2.45;;
962;SDS011;469;48.770;9.176;2022-11-24T08:22:18;21.52;;;2.72;;
962;SDS011;469;48.770;9.176;2022-11-24T08:24:45;11.43;;;2.42;;
962;SDS011;469;48.770;9.176;2022-11-24T08:27:16;11.27;;;2.25;;
962;SDS011;469;48.770;9.176;2022-11-24T08:29:45;17.50;;;2.33;;
962;SDS011;469;48.770;9.176;2022-11-24T08:32:13;13.55;;;2.70;;
962;SDS011;469;48.770;9.176;2022-11-24T08:34:45;12.15;;;2.20;;
962;SDS011;469;48.770;9.176;2022-11-24T08:37:13;10.70;;;2.05;;
962;SDS011;469;48.770;9.176;2022-11-24T08:39:40;12.23;;;2.45;;
962;SDS011;469;48.770;9.176;2022-11-24T08:42:07;10.48;;;2.35;;
962;SDS011;469;48.770;9.176;2022-11-24T08:44:35;14.18;;;2.05;;
962;SDS011;469;48.770;9.176;2022-11-24T08:47:02;12.93;;;2.38;;
962;SDS011;469;48.770;9.176;2022-11-24T08:49:29;6.97;;;1.30;;
962;SDS011;469;48.770;9.176;2022-11-24T08:51:56;5.82;;;1.23;;
962;SDS011;469;48.770;9.176;2022-11-24T08:54:25;3.63;;;1.10;;
962;SDS011;469;48.770;9.176;2022-11-24T08:56:52;4.90;;;1.20;;
962;SDS011;469;48.770;9.176;2022-11-24T08:59:20;5.13;;;1.30;;
962;SDS011;469;48.770;9.176;2022-11-24T09:01:47;6.13;;;1.38;;
962;SDS011;469;48.770;9.176;2022-11-24T09:04:14;3.78;;;1.40;;
962;SDS011;469;48.770;9.176;2022-11-24T09:06:44;6.28;;;1.20;;
962;SDS011;469;48.770;9.176;2022-11-24T09:09:11;8.55;;;1.60;;
962;SDS011;469;48.770;9.176;2022-11-24T09:11:41;3.45;;;1.48;;
962;SDS011;469;48.770;9.176;2022-11-24T09:14:08;4.22;;;1.40;;
962;SDS011;469;48.770;9.176;2022-11-24T09:16:36;10.63;;;2.17;;
962;SDS011;469;48.770;9.176;2022-11-24T09:19:03;13.82;;;1.77;;
962;SDS011;469;48.770;9.176;2022-11-24T09:21:32;5.63;;;1.40;;
962;SDS011;469;48.770;9.176;2022-11-24T09:24:02;2.83;;;1.15;;
962;SDS011;469;48.770;9.176;2022-11-24T09:26:30;3.85;;;1.17;;
962;SDS011;469;48.770;9.176;2022-11-24T09:28:59;4.90;;;1.10;;
962;SDS011;469;48.770;9.176;2022-11-24T09:31:27;5.30;;;1.17;;
962;SDS011;469;48.770;9.176;2022-11-24T09:33:54;4.35;;;1.20;;
962;SDS011;469;48.770;9.176;2022-11-24T09:36:22;5.38;;;1.20;;
962;SDS011;469;48.770;9.176;2022-11-24T09:38:57;4.10;;;1.13;;
962;SDS011;469;48.770;9.176;2022-11-24T09:44:22;4.72;;;1.35;;
962;SDS011;469;48.770;9.176;2022-11-24T09:46:57;2.65;;;0.80;;
962;SDS011;469;48.770;9.176;2022-11-24T09:49:29;2.88;;;1.00;;
962;SDS011;469;48.770;9.176;2022-11-24T09:51:59;3.85;;;1.40;;
962;SDS011;469;48.770;9.176;2022-11-24T09:54:30;4.72;;;1.25;;
962;SDS011;469;48.770;9.176;2022-11-24T09:56:59;4.18;;;1.20;;
962;SDS011;469;48.770;9.176;2022-11-24T09:59:28;9.20;;;1.40;;
962;SDS011;469;48.770;9.176;2022-11-24T10:01:55;3.70;;;0.98;;
962;SDS011;469;48.770;9.176;2022-11-24T10:04:24;5.00;;;1.10;;
962;SDS011;469;48.770;9.176;2022-11-24T10:06:57;4.43;;;0.88;;
962;SDS011;469;48.770;9.176;2022-11-24T10:09:31;6.82;;;1.40;;
962;SDS011;469;48.770;9.176;2022-11-24T10:12:08;3.47;;;1.40;;
962;SDS011;469;48.770;9.176;2022-11-24T10:17:28;2.58;;;1.10;;
962;SDS011;469;48.770;9.176;2022-11-24T10:20:02;2.47;;;0.98;;
962;SDS011;469;48.770;9.176;2022-11-24T10:22:34;2.10;;;0.90;;
962;SDS011;469;48.770;9.176;2022-11-24T10:25:11;4.80;;;1.00;;
962;SDS011;469;48.770;9.176;2022-11-24T10:27:39;3.35;;;1.00;;
962;SDS011;469;48.770;9.176;2022-11-24T10:30:11;1.70;;;0.80;;
962;SDS011;469;48.770;9.176;2022-11-24T10:32:41;3.75;;;0.90;;
962;SDS011;469;48.770;9.176;2022-11-24T10:35:12;2.40;;;0.90;;
962;SDS011;469;48.770;9.176;2022-11-24T10:37:44;4.35;;;1.45;;
962;SDS011;469;48.770;9.176;2022-11-24T10:40:16;7.85;;;1.42;;
962;SDS011;469;48.770;9.176;2022-11-24T10:42:44;3.22;;;1.02;;
962;SDS011;469;48.770;9.176;2022-11-24T10:45:13;3.25;;;0.75;;
962;SDS011;469;48.770;9.176;2022-11-24T10:47:42;6.80;;;1.52;;
962;SDS011;469;48.770;9.176;2022-11-24T10:50:11;5.60;;;0.90;;
962;SDS011;469;48.770;9.176;2022-11-24T10:52:57;2.45;;;1.10;;
962;SDS011;469;48.770;9.176;2022-11-24T10:55:45;4.45;;;1.42;;
962;SDS011;469;48.770;9.176;2022-11-24T10:58:23;3.67;;;1.35;;
962;SDS011;469;48.770;9.176;2022-11-24T11:00:51;4.28;;;1.27;;
962;SDS011;469;48.770;9.176;2022-11-24T11:03:20;2.40;;;1.10;;
962;SDS011;469;48.770;9.176;2022-11-24T11:05:53;2.60;;;0.90;;
962;SDS011;469;48.770;9.176;2022-11-24T11:08:24;3.00;;;1.00;;
962;SDS011;469;48.770;9.176;2022-11-24T11:20:30;5.47;;;1.23;;
962;SDS011;469;48.770;9.176;2022-11-24T11:22:58;3.58;;;0.98;;
962;SDS011;469;48.770;9.176;2022-11-24T11:25:27;2.60;;;1.00;;
962;SDS011;469;48.770;9.176;2022-11-24T11:30:42;4.32;;;1.17;;
962;SDS011;469;48.770;9.176;2022-11-24T11:33:21;3.90;;;1.58;;
962;SDS011;469;48.770;9.176;2022-11-24T11:35:50;4.57;;;1.20;;
962;SDS011;469;48.770;9.176;2022-11-24T11:38:18;4.53;;;1.85;;
962;SDS011;469;48.770;9.176;2022-11-24T11:40:45;7.00;;;2.60;;
962;SDS011;469;48.770;9.176;2022-11-24T11:43:16;6.13;;;1.00;;
962;SDS011;469;48.770;9.176;2022-11-24T11:45:45;5.20;;;1.35;;
962;SDS011;469;48.770;9.176;2022-11-24T11:48:19;5.30;;;1.75;;
962;SDS011;469;48.770;9.176;2022-11-24T11:50:49;3.83;;;1.20;;
962;SDS011;469;48.770;9.176;2022-11-24T11:53:20;5.13;;;1.35;;
962;SDS011;469;48.770;9.176;2022-11-24T11:56:00;3.08;;;0.95;;
962;SDS011;469;48.770;9.176;2022-11-24T12:01:26;4.25;;;1.58;;
962;SDS011;469;48.770;9.176;2022-11-24T12:04:00;3.80;;;1.02;;
962;SDS011;469;48.770;9.176;2022-11-24T12:06:37;3.70;;;1.38;;
962;SDS011;469;48.770;9.176;2022-11-24T12:09:08;4.70;;;1.10;;
962;SDS011;469;48.770;9.176;2022-11-24T12:11:42;9.70;;;2.20;;
962;SDS011;469;48.770;9.176;2022-11-24T12:14:13;3.45;;;1.30;;
962;SDS011;469;48.770;9.176;2022-11-24T12:16:43;5.00;;;1.50;;
962;SDS011;469;48.770;9.176;2022-11-24T12:19:18;3.05;;;1.08;;
962;SDS011;469;48.770;9.176;2022-11-24T12:21:50;5.10;;;1.75;;
962;SDS011;469;48.770;9.176;2022-11-24T12:24:20;7.13;;;1.95;;
962;SDS011;469;48.770;9.176;2022-11-24T12:26:50;5.20;;;1.80;;
962;SDS011;469;48.770;9.176;2022-11-24T12:29:32;6.65;;;1.83;;
962;SDS011;469;48.770;9.176;2022-11-24T12:32:06;5.20;;;1.38;;
962;SDS011;469;48.770;9.176;2022-11-24T12:34:40;6.20;;;1.52;;
962;SDS011;469;48.770;9.176;2022-11-24T12:37:14;6.65;;;1.25;;
962;SDS011;469;48.770;9.176;2022-11-24T12:39:48;11.32;;;2.17;;
962;SDS011;469;48.770;9.176;2022-11-24T12:42:19;7.57;;;1.50;;
962;SDS011;469;48.770;9.176;2022-11-24T12:44:54;9.23;;;1.67;;
962;SDS011;469;48.770;9.176;2022-11-24T12:47:27;7.28;;;1.35;;
962;SDS011;469;48.770;9.176;2022-11-24T12:50:00;5.40;;;1.35;;
962;SDS011;469;48.770;9.176;2022-11-24T12:52:31;9.85;;;1.92;;
962;SDS011;469;48.770;9.176;2022-11-24T12:54:58;7.97;;;1.15;;
962;SDS011;469;48.770;9.176;2022-11-24T12:57:33;8.90;;;1.55;;
962;SDS011;469;48.770;9.176;2022-11-24T13:05:54;8.00;;;1.27;;
962;SDS011;469;48.770;9.176;2022-11-24T13:11:36;8.80;;;1.58;;
962;SDS011;469;48.770;9.176;2022-11-24T13:16:55;9.93;;;2.35;;
962;SDS011;469;48.770;9.176;2022-11-24T13:19:43;7.53;;;1.52;;
962;SDS011;469;48.770;9.176;2022-11-24T13:22:42;9.07;;;1.38;;
962;SDS011;469;48.770;9.176;2022-11-24T17:43:51;19.73;;;4.78;;
962;SDS011;469;48.770;9.176;2022-11-24T17:46:21;11.30;;;3.58;;
962;SDS011;469;48.770;9.176;2022-11-24T17:49:01;14.35;;;4.28;;
962;SDS011;469;48.770;9.176;2022-11-24T17:51:40;11.40;;;3.60;;
962;SDS011;469;48.770;9.176;2022-11-24T17:54:10;13.98;;;3.90;;
962;SDS011;469;48.770;9.176;2022-11-24T17:56:38;14.13;;;3.85;;
962;SDS011;469;48.770;9.176;2022-11-24T17:59:28;17.60;;;4.40;;
962;SDS011;469;48.770;9.176;2022-11-24T18:02:00;11.38;;;4.00;;
962;SDS011;469;48.770;9.176;2022-11-24T18:04:34;15.60;;;4.25;;
962;SDS011;469;48.770;9.176;2022-11-24T18:07:05;18.33;;;4.80;;
962;SDS011;469;48.770;9.176;2022-11-24T18:10:10;14.38;;;3.95;;
962;SDS011;469;48.770;9.176;2022-11-24T18:13:18;13.73;;;4.63;;
962;SDS011;469;48.770;9.176;2022-11-24T18:15:45;19.55;;;5.25;;
962;SDS011;469;48.770;9.176;2022-11-24T18:18:24;15.98;;;5.88;;
962;SDS011;469;48.770;9.176;2022-11-24T18:20:59;17.95;;;4.68;;
962;SDS011;469;48.770;9.176;2022-11-24T18:23:27;21.98;;;5.53;;
962;SDS011;469;48.770;9.176;2022-11-24T18:25:55;12.90;;;4.63;;
962;SDS011;469;48.770;9.176;2022-11-24T18:28:24;27.05;;;5.68;;
962;SDS011;469;48.770;9.176;2022-11-24T18:31:02;22.80;;;4.43;;
962;SDS011;469;48.770;9.176;2022-11-24T18:33:31;14.60;;;4.70;;
962;SDS011;469;48.770;9.176;2022-11-24T18:35:58;14.43;;;5.20;;
962;SDS011;469;48.770;9.176;2022-11-24T18:38:27;19.10;;;5.75;;
962;SDS011;469;48.770;9.176;2022-11-24T18:40:55;16.95;;;5.15;;
962;SDS011;469;48.770;9.176;2022-11-24T18:43:22;16.85;;;4.75;;
962;SDS011;469;48.770;9.176;2022-11-24T18:45:50;15.18;;;5.20;;
962;SDS011;469;48.770;9.176;2022-11-24T18:48:19;19.05;;;5.28;;
962;SDS011;469;48.770;9.176;2022-11-24T18:50:48;22.58;;;5.72;;
962;SDS011;469;48.770;9.176;2022-11-24T18:53:16;19.65;;;5.20;;
962;SDS011;469;48.770;9.176;2022-11-24T18:55:52;22.48;;;5.75;;
962;SDS011;469;48.770;9.176;2022-11-24T18:58:19;19.20;;;6.30;;
962;SDS011;469;48.770;9.176;2022-11-24T19:00:46;20.40;;;5.50;;
962;SDS011;469;48.770;9.176;2022-11-24T19:03:13;15.20;;;4.97;;
962;SDS011;469;48.770;9.176;2022-11-24T19:05:42;18.17;;;6.80;;
962;SDS011;469;48.770;9.176;2022-11-24T19:08:09;26.75;;;7.47;;
962;SDS011;469;48.770;9.176;2022-11-24T19:10:36;19.95;;;5.45;;
962;SDS011;469;48.770;9.176;2022-11-24T19:13:05;19.13;;;6.72;;
962;SDS011;469;48.770;9.176;2022-11-24T19:15:32;16.35;;;5.72;;
962;SDS011;469;48.770;9.176;2022-11-24T19:18:00;13.27;;;5.95;;
962;SDS011;469;48.770;9.176;2022-11-24T19:20:27;15.45;;;5.95;;
962;SDS011;469;48.770;9.176;2022-11-24T19:22:59;22.85;;;6.43;;
962;SDS011;469;48.770;9.176;2022-11-24T19:25:27;20.23;;;6.00;;
962;SDS011;469;48.770;9.176;2022-11-24T19:27:54;19.27;;;6.00;;
962;SDS011;469;48.770;9.176;2022-11-24T19:30:21;29.50;;;7.05;;
962;SDS011;469;48.770;9.176;2022-11-24T19:32:55;22.75;;;6.10;;
962;SDS011;469;48.770;9.176;2022-11-24T19:35:22;20.08;;;6.85;;
962;SDS011;469;48.770;9.176;2022-11-24T19:37:49;28.25;;;6.05;;
962;SDS011;469;48.770;9.176;2022-11-24T19:40:18;22.60;;;6.78;;
962;SDS011;469;48.770;9.176;2022-11-24T19:42:45;18.63;;;5.55;;
962;SDS011;469;48.770;9.176;2022-11-24T19:45:14;20.55;;;5.82;;
962;SDS011;469;48.770;9.176;2022-11-24T19:47:41;19.42;;;7.10;;
962;SDS011;469;48.770;9.176;2022-11-24T19:50:09;15.20;;;5.60;;
962;SDS011;469;48.770;9.176;2022-11-24T19:52:36;20.08;;;7.65;;
962;SDS011;469;48.770;9.176;2022-11-24T19:55:03;15.65;;;6.00;;
962;SDS011;469;48.770;9.176;2022-11-24T19:57:32;15.07;;;5.18;;
962;SDS011;469;48.770;9.176;2022-11-24T19:59:59;15.15;;;5.53;;
962;SDS011;469;48.770;9.176;2022-11-24T20:02:26;17.52;;;5.65;;
962;SDS011;469;48.770;9.176;2022-11-24T20:04:53;22.83;;;5.93;;
962;SDS011;469;48.770;9.176;2022-11-24T20:07:20;24.48;;;7.20;;
962;SDS011;469;48.770;9.176;2022-11-24T20:09:47;15.30;;;5.25;;
962;SDS011;469;48.770;9.176;2022-11-24T20:12:14;22.20;;;4.95;;
962;SDS011;469;48.770;9.176;2022-11-24T20:14:43;16.65;;;6.20;;
962;SDS011;469;48.770;9.176;2022-11-24T20:17:10;26.95;;;6.15;;
962;SDS011;469;48.770;9.176;2022-11-24T20:19:38;13.50;;;6.28;;
962;SDS011;469;48.770;9.176;2022-11-24T20:25:08;15.85;;;5.65;;
962;SDS011;469;48.770;9.176;2022-11-24T20:27:35;15.65;;;5.10;;
962;SDS011;469;48.770;9.176;2022-11-24T20:30:04;15.82;;;4.53;;
962;SDS011;469;48.770;9.176;2022-11-24T20:32:35;18.25;;;5.40;;
962;SDS011;469;48.770;9.176;2022-11-24T20:37:58;15.13;;;5.38;;
962;SDS011;469;48.770;9.176;2022-11-24T20:41:01;16.40;;;5.30;;
962;SDS011;469;48.770;9.176;2022-11-24T20:43:28;21.55;;;5.57;;
962;SDS011;469;48.770;9.176;2022-11-24T20:45:57;16.50;;;5.57;;
962;SDS011;469;48.770;9.176;2022-11-24T20:48:26;20.00;;;5.50;;
962;SDS011;469;48.770;9.176;2022-11-24T20:50:55;14.93;;;5.70;;
962;SDS011;469;48.770;9.176;2022-11-24T20:53:24;23.25;;;5.40;;
962;SDS011;469;48.770;9.176;2022-11-24T21:00:15;27.00;;;6.07;;
962;SDS011;469;48.770;9.176;2022-11-24T21:02:20;18.80;;;5.72;;